createdAt,value
2018-02-13T00:00:25.261Z,-0.40
2018-02-13T00:02:52.174Z,-0.30
2018-02-13T00:05:33.497Z,-0.20
2018-02-13T00:08:00.313Z,-0.30
2018-02-13T00:10:26.803Z,-0.20
2018-02-13T00:12:54.159Z,-0.30
2018-02-13T00:15:20.845Z,-0.30
2018-02-13T00:17:47.284Z,-0.40
2018-02-13T00:20:13.768Z,-0.30
2018-02-13T00:22:47.525Z,-0.20
2018-02-13T00:25:13.973Z,-0.30
2018-02-13T00:27:40.889Z,-0.30
2018-02-13T00:30:07.812Z,-0.30
2018-02-13T00:32:34.362Z,-0.40
2018-02-13T00:35:01.056Z,-0.30
2018-02-13T00:37:29.135Z,-0.20
2018-02-13T00:39:55.777Z,-0.10
2018-02-13T00:42:23.010Z,-0.40
2018-02-13T00:44:49.634Z,-0.30
2018-02-13T00:47:17.164Z,-0.20
2018-02-13T00:49:45.388Z,-0.30
2018-02-13T00:52:11.845Z,-0.30
2018-02-13T00:54:39.763Z,-0.30
2018-02-13T00:57:06.287Z,-0.30
2018-02-13T00:59:33.885Z,-0.20
2018-02-13T01:02:00.449Z,-0.30
2018-02-13T01:04:28.735Z,-0.40
2018-02-13T01:06:56.098Z,-0.10
2018-02-13T01:09:22.591Z,-0.10
2018-02-13T01:11:50.157Z,-0.30
2018-02-13T01:14:17.500Z,-0.30
2018-02-13T01:16:44.014Z,-0.30
2018-02-13T01:19:12.413Z,-0.40
2018-02-13T01:21:40.055Z,-0.40
2018-02-13T01:24:07.710Z,-0.30
2018-02-13T01:26:34.239Z,-0.40
2018-02-13T01:29:01.957Z,-0.40
2018-02-13T01:31:28.446Z,-0.40
2018-02-13T01:33:55.732Z,-0.50
2018-02-13T01:36:22.594Z,-0.50
2018-02-13T01:38:49.902Z,-0.30
2018-02-13T01:41:16.855Z,-0.30
2018-02-13T01:43:45.013Z,-0.50
2018-02-13T01:46:12.046Z,-0.30
2018-02-13T01:48:38.687Z,-0.30
2018-02-13T01:51:05.517Z,-0.50
2018-02-13T01:53:32.123Z,-0.50
2018-02-13T01:55:59.785Z,-0.50
2018-02-13T01:58:26.586Z,-0.40
2018-02-13T02:00:53.216Z,-0.50
2018-02-13T02:03:19.825Z,-0.40
2018-02-13T02:05:47.110Z,-0.40
2018-02-13T02:08:13.994Z,-0.40
2018-02-13T02:10:41.185Z,-0.70
2018-02-13T02:13:08.106Z,-0.60
2018-02-13T02:15:35.489Z,-0.50
2018-02-13T02:18:02.058Z,-0.40
2018-02-13T02:20:28.938Z,-0.50
2018-02-13T02:22:56.576Z,-0.50
2018-02-13T02:25:23.245Z,-0.50
2018-02-13T02:27:50.526Z,-0.50
2018-02-13T02:30:17.053Z,-0.60
2018-02-13T02:32:43.641Z,-0.60
2018-02-13T02:35:10.404Z,-0.60
2018-02-13T02:37:37.271Z,-0.60
2018-02-13T02:40:03.770Z,-0.50
2018-02-13T03:19:26.378Z,-1.00
2018-02-13T03:52:35.126Z,-1.20
2018-02-13T05:12:03.191Z,-1.10
2018-02-13T05:37:26.855Z,-1.20
2018-02-13T06:32:59.695Z,-1.40
2018-02-13T07:57:54.693Z,-1.10
2018-02-13T09:04:57.881Z,0.70
2018-02-13T09:36:39.242Z,1.40
2018-02-13T11:15:43.945Z,2.90
2018-02-13T11:30:57.448Z,4.50
2018-02-13T11:33:24.135Z,4.90
2018-02-13T11:35:52.253Z,5.10
2018-02-13T11:38:19.605Z,5.90
2018-02-13T11:40:46.214Z,6.40
2018-02-13T11:43:13.488Z,6.40
2018-02-13T11:45:40.284Z,6.60
2018-02-13T11:48:07.217Z,7.00
2018-02-13T11:50:33.660Z,6.70
2018-02-13T11:53:00.364Z,7.20
2018-02-13T11:55:27.746Z,7.40
2018-02-13T11:57:54.194Z,7.30
2018-02-13T12:00:21.018Z,7.60
2018-02-13T12:02:47.719Z,7.90
2018-02-13T12:05:15.262Z,8.50
2018-02-13T12:07:42.060Z,9.40
2018-02-13T12:10:09.060Z,9.60
2018-02-13T12:12:36.479Z,9.70
2018-02-13T12:15:03.386Z,8.60
2018-02-13T12:17:30.767Z,9.10
2018-02-13T12:19:57.257Z,9.30
2018-02-13T12:24:53.174Z,9.70
2018-02-13T12:27:20.438Z,9.90
2018-02-13T12:29:47.561Z,9.50
2018-02-13T12:34:42.804Z,7.90
2018-02-13T12:37:10.089Z,7.40
2018-02-13T12:39:37.667Z,7.40
2018-02-13T12:42:05.897Z,8.30
2018-02-13T12:44:32.768Z,8.70
2018-02-13T12:46:59.302Z,10.40
2018-02-13T12:49:26.200Z,10.50
2018-02-13T12:51:54.069Z,11.30
2018-02-13T12:54:21.393Z,10.00
2018-02-13T12:56:48.392Z,9.90
2018-02-13T12:59:17.813Z,9.60
2018-02-13T13:04:13.967Z,9.80
2018-02-13T13:06:41.000Z,10.10
2018-02-13T13:09:09.098Z,10.30
2018-02-13T13:11:36.446Z,9.90
2018-02-13T13:14:03.599Z,10.90
2018-02-13T13:16:30.128Z,10.00
2018-02-13T13:18:56.566Z,9.20
2018-02-13T13:23:52.182Z,8.60
2018-02-13T13:26:19.790Z,9.50
2018-02-13T13:28:53.607Z,9.00
2018-02-13T13:31:21.248Z,9.40
2018-02-13T13:33:49.287Z,9.00
2018-02-13T13:36:16.234Z,8.50
2018-02-13T13:38:42.878Z,8.50
2018-02-13T13:41:09.430Z,8.20
2018-02-13T13:46:04.327Z,9.00
2018-02-13T13:48:31.959Z,8.30
2018-02-13T13:50:59.147Z,8.20
2018-02-13T13:53:25.617Z,9.00
2018-02-13T13:55:52.063Z,8.90
2018-02-13T13:58:18.665Z,9.10
2018-02-13T14:00:46.603Z,8.80
2018-02-13T14:03:14.385Z,9.10
2018-02-13T14:05:42.265Z,9.00
2018-02-13T14:08:09.668Z,9.60
2018-02-13T14:10:37.170Z,9.90
2018-02-13T14:13:04.217Z,9.70
2018-02-13T14:15:30.705Z,9.30
2018-02-13T14:17:57.344Z,8.50
2018-02-13T14:20:24.393Z,8.30
2018-02-13T14:22:51.620Z,8.40
2018-02-13T14:25:18.244Z,8.30
2018-02-13T14:27:46.575Z,8.80
2018-02-13T14:30:13.824Z,8.80
2018-02-13T14:32:40.997Z,8.90
2018-02-13T14:35:08.459Z,9.20
2018-02-13T14:37:35.325Z,9.10
2018-02-13T14:40:02.803Z,8.90
2018-02-13T14:42:29.928Z,8.70
2018-02-13T14:44:57.072Z,8.80
2018-02-13T14:47:24.613Z,9.20
2018-02-13T14:49:52.128Z,9.10
2018-02-13T14:52:19.439Z,9.10
2018-02-13T14:54:45.902Z,9.40
2018-02-13T14:57:13.345Z,9.10
2018-02-13T14:59:40.570Z,9.00
2018-02-13T15:02:07.539Z,8.40
2018-02-13T15:04:35.614Z,8.10
2018-02-13T15:09:31.835Z,7.90
2018-02-13T15:11:59.691Z,8.10
2018-02-13T15:14:31.060Z,8.40
2018-02-13T15:17:00.003Z,8.10
2018-02-13T15:19:27.342Z,7.60
2018-02-13T15:21:55.421Z,7.60
2018-02-13T15:24:22.737Z,6.90
2018-02-13T15:26:49.205Z,7.00
2018-02-13T15:29:17.244Z,6.70
2018-02-13T15:31:44.569Z,6.40
2018-02-13T15:34:11.550Z,6.10
2018-02-13T15:36:39.018Z,5.70
2018-02-13T15:39:05.724Z,5.50
2018-02-13T15:41:32.948Z,5.40
2018-02-13T15:43:59.836Z,5.80
2018-02-13T15:46:26.981Z,5.50
2018-02-13T15:48:54.508Z,5.40
2018-02-13T15:51:21.491Z,5.20
2018-02-13T15:53:48.160Z,5.00
2018-02-13T15:56:15.519Z,4.70
2018-02-13T15:58:42.828Z,4.20
2018-02-13T16:01:09.773Z,3.80
2018-02-13T16:03:36.668Z,3.70
2018-02-13T16:08:31.894Z,3.20
2018-02-13T16:10:58.783Z,2.90
2018-02-13T16:13:25.792Z,2.70
2018-02-13T16:15:53.451Z,2.70
2018-02-13T16:18:19.961Z,2.70
2018-02-13T16:20:47.929Z,2.50
2018-02-13T16:23:14.449Z,2.10
2018-02-13T16:25:40.978Z,2.30
2018-02-13T16:28:08.214Z,2.10
2018-02-13T16:30:35.063Z,1.90
2018-02-13T16:33:02.129Z,1.70
2018-02-13T16:35:35.404Z,1.80
2018-02-13T16:38:04.047Z,1.70
2018-02-13T16:40:30.533Z,1.70
2018-02-13T16:42:57.953Z,1.50
2018-02-13T16:45:25.888Z,1.50
2018-02-13T16:47:52.756Z,1.40
2018-02-13T16:50:20.556Z,1.40
2018-02-13T16:52:47.039Z,1.30
2018-02-13T16:57:42.485Z,1.20
2018-02-13T17:00:09.053Z,1.10
2018-02-13T17:02:36.694Z,1.10
2018-02-13T17:07:31.830Z,0.90
2018-02-13T17:09:58.288Z,0.80
2018-02-13T17:12:25.175Z,0.60
2018-02-13T17:14:51.704Z,0.70
2018-02-13T17:17:18.577Z,0.60
2018-02-13T17:19:45.307Z,0.60
2018-02-13T17:22:12.154Z,0.50
2018-02-13T17:24:39.321Z,0.50
2018-02-13T17:27:05.901Z,0.50
2018-02-13T17:29:33.575Z,0.50
2018-02-13T17:32:00.162Z,0.50
2018-02-13T17:34:27.877Z,0.40
2018-02-13T17:39:23.520Z,0.30
2018-02-13T17:41:50.841Z,0.10
2018-02-13T17:44:17.314Z,0.10
2018-02-13T17:46:43.851Z,0.20
2018-02-13T17:49:11.270Z,0.10
2018-02-13T17:51:37.749Z,0.20
2018-02-13T17:54:04.269Z,0.20
2018-02-13T17:56:30.929Z,0.50
2018-02-13T17:58:57.550Z,0.20
2018-02-13T18:01:25.719Z,0.20
2018-02-13T18:03:52.275Z,0.10
2018-02-13T18:06:18.838Z,0.10
2018-02-13T18:08:46.169Z,0.00
2018-02-13T18:13:41.130Z,-0.20
2018-02-13T18:16:08.451Z,0.00
2018-02-13T18:18:35.000Z,0.00
2018-02-13T18:21:02.324Z,-0.20
2018-02-13T18:23:28.814Z,-0.20
2018-02-13T18:25:55.473Z,-0.20
2018-02-13T18:28:23.432Z,-0.20
2018-02-13T18:30:49.962Z,-0.20
2018-02-13T18:33:16.947Z,-0.30
2018-02-13T18:35:43.462Z,-0.30
2018-02-13T18:38:10.019Z,-0.30
2018-02-13T18:40:37.944Z,-0.50
2018-02-13T18:43:04.428Z,-0.60
2018-02-13T18:45:30.874Z,-0.60
2018-02-13T18:47:58.217Z,-0.50
2018-02-13T18:50:24.764Z,-0.60
2018-02-13T18:55:18.953Z,-0.50
2018-02-13T18:57:46.087Z,-0.30
2018-02-13T19:00:12.635Z,-0.50
2018-02-13T19:02:39.571Z,-0.50
2018-02-13T19:05:06.099Z,-0.60
2018-02-13T19:07:32.646Z,-0.70
2018-02-13T19:09:59.375Z,-0.80
2018-02-13T19:12:25.894Z,-0.80
2018-02-13T19:14:52.525Z,-1.00
2018-02-13T19:17:20.081Z,-1.00
2018-02-13T19:19:46.890Z,-0.90
2018-02-13T19:22:14.621Z,-0.90
2018-02-13T19:24:41.569Z,-1.10
2018-02-13T19:27:09.033Z,-1.10
2018-02-13T19:29:37.191Z,-0.90
2018-02-13T19:32:06.422Z,-0.90
2018-02-13T19:34:33.328Z,-0.60
2018-02-13T19:37:01.567Z,-0.80
2018-02-13T19:39:30.668Z,-0.80
2018-02-13T19:41:57.234Z,-1.00
2018-02-13T19:44:28.366Z,-1.00
2018-02-13T19:46:56.763Z,-1.20
2018-02-13T19:49:23.300Z,-1.10
2018-02-13T19:51:50.546Z,-1.20
2018-02-13T19:54:17.169Z,-1.20
2018-02-13T19:56:47.199Z,-1.20
2018-02-13T19:59:14.879Z,-1.30
2018-02-13T20:01:42.208Z,-1.20
2018-02-13T20:04:10.176Z,-1.30
2018-02-13T20:06:37.051Z,-1.20
2018-02-13T20:09:03.977Z,-1.20
2018-02-13T20:11:31.337Z,-1.20
2018-02-13T20:13:57.954Z,-1.20
2018-02-13T20:16:24.959Z,-1.20
2018-02-13T20:18:51.663Z,-1.20
2018-02-13T20:21:18.970Z,-1.20
2018-02-13T20:23:46.009Z,-1.40
2018-02-13T20:26:13.394Z,-1.30
2018-02-13T20:28:40.386Z,-1.40
2018-02-13T20:31:07.723Z,-1.30
2018-02-13T20:33:35.061Z,-1.20
2018-02-13T20:36:01.784Z,-1.40
2018-02-13T20:38:28.589Z,-1.30
2018-02-13T20:40:55.204Z,-1.30
2018-02-13T20:43:22.328Z,-1.50
2018-02-13T20:45:49.202Z,-1.30
2018-02-13T20:48:16.471Z,-1.30
2018-02-13T20:50:43.023Z,-1.30
2018-02-13T20:53:10.745Z,-1.60
2018-02-13T20:58:10.743Z,-1.60
2018-02-13T21:00:38.368Z,-1.70
2018-02-13T21:03:04.946Z,-1.60
2018-02-13T21:05:31.767Z,-1.50
2018-02-13T21:07:58.530Z,-1.60
2018-02-13T21:10:24.982Z,-1.60
2018-02-13T21:12:52.731Z,-1.70
2018-02-13T21:15:19.639Z,-1.70
2018-02-13T21:17:46.566Z,-1.60
2018-02-13T21:20:14.398Z,-1.60
2018-02-13T21:22:40.940Z,-1.60
2018-02-13T21:25:08.278Z,-1.60
2018-02-13T21:27:35.988Z,-1.60
2018-02-13T21:30:02.681Z,-1.50
2018-02-13T21:32:30.274Z,-1.60
2018-02-13T21:34:57.652Z,-1.50
2018-02-13T21:37:24.840Z,-1.50
2018-02-13T21:39:51.523Z,-1.50
2018-02-13T21:42:18.350Z,-1.50
2018-02-13T21:44:46.362Z,-1.40
2018-02-13T21:47:13.003Z,-1.50
2018-02-13T21:49:40.443Z,-1.40
2018-02-13T21:52:07.035Z,-1.50
2018-02-13T21:54:33.707Z,-1.60
2018-02-13T21:57:00.432Z,-1.50
2018-02-13T21:59:27.226Z,-1.80
2018-02-13T22:01:53.762Z,-2.00
2018-02-13T22:04:20.287Z,-1.90
2018-02-13T22:06:47.903Z,-2.20
2018-02-13T22:09:14.517Z,-2.20
2018-02-13T22:11:41.225Z,-2.10
2018-02-13T22:14:08.485Z,-2.20
2018-02-13T22:16:35.814Z,-2.30
2018-02-13T22:19:03.097Z,-2.30
2018-02-13T22:21:31.136Z,-2.40
2018-02-13T22:23:58.466Z,-2.30
2018-02-13T22:26:25.752Z,-2.30
2018-02-13T22:28:52.306Z,-1.80
2018-02-13T22:31:19.631Z,-2.00
2018-02-13T22:33:46.926Z,-2.10
2018-02-13T22:36:13.926Z,-2.30
2018-02-13T22:38:40.481Z,-2.40
2018-02-13T22:41:07.441Z,-2.40
2018-02-13T22:43:34.845Z,-2.60
2018-02-13T22:46:01.544Z,-2.70
2018-02-13T22:48:29.032Z,-2.60
2018-02-13T22:50:55.633Z,-2.60
2018-02-13T22:53:22.106Z,-2.50
2018-02-13T22:55:49.838Z,-2.50
2018-02-13T22:58:16.458Z,-2.30
2018-02-13T23:00:43.011Z,-2.40
2018-02-13T23:03:11.184Z,-2.40
2018-02-13T23:05:38.497Z,-2.40
2018-02-13T23:08:05.777Z,-2.60
2018-02-13T23:10:33.230Z,-2.70
2018-02-13T23:12:59.790Z,-2.70
2018-02-13T23:15:26.369Z,-2.10
2018-02-13T23:17:53.926Z,-2.60
2018-02-13T23:20:20.829Z,-2.70
2018-02-13T23:22:47.426Z,-2.70
2018-02-13T23:25:14.600Z,-2.70
2018-02-13T23:27:41.282Z,-2.80
2018-02-13T23:30:07.953Z,-2.90
2018-02-13T23:32:35.888Z,-2.80
2018-02-13T23:35:06.946Z,-2.80
2018-02-13T23:37:34.080Z,-2.70
2018-02-13T23:40:00.836Z,-2.80
2018-02-13T23:42:27.528Z,-2.90
2018-02-13T23:44:54.728Z,-2.90
2018-02-13T23:47:22.224Z,-3.00
2018-02-13T23:49:48.772Z,-3.10
2018-02-13T23:52:15.333Z,-3.20
2018-02-13T23:54:49.135Z,-3.10
2018-02-13T23:57:15.609Z,-3.10
2018-02-13T23:59:42.333Z,-3.10
